createdAt,value
2017-07-14T00:00:10.079Z,99.99
2017-07-14T00:01:10.394Z,99.99
2017-07-14T00:02:10.052Z,99.99
2017-07-14T00:03:10.043Z,99.99
2017-07-14T00:04:10.351Z,99.99
2017-07-14T00:05:10.338Z,99.33
2017-07-14T00:06:10.000Z,99.04
2017-07-14T00:07:10.310Z,98.94
2017-07-14T00:08:10.322Z,98.66
2017-07-14T00:09:10.282Z,97.99
2017-07-14T00:10:10.270Z,97.71
2017-07-14T00:11:09.935Z,97.61
2017-07-14T00:12:09.921Z,97.23
2017-07-14T00:13:09.939Z,97.42
2017-07-14T00:14:10.218Z,97.13
2017-07-14T00:15:09.885Z,97.37
2017-07-14T00:16:09.870Z,97.61
2017-07-14T00:17:10.179Z,97.32
2017-07-14T00:18:10.173Z,97.13
2017-07-14T00:19:09.831Z,96.84
2017-07-14T00:20:10.139Z,97.52
2017-07-14T00:21:09.804Z,96.94
2017-07-14T00:22:09.788Z,96.27
2017-07-14T00:23:10.110Z,95.61
2017-07-14T00:24:09.762Z,95.7
2017-07-14T00:25:09.750Z,96.08
2017-07-14T00:26:09.738Z,96.37
2017-07-14T00:27:10.045Z,96.46
2017-07-14T00:28:09.709Z,96.61
2017-07-14T00:29:09.695Z,96.13
2017-07-14T00:30:10.006Z,95.98
2017-07-14T00:31:10.032Z,96.56
2017-07-14T00:32:09.660Z,96.46
2017-07-14T00:33:09.971Z,95.61
2017-07-14T00:34:09.633Z,95.32
2017-07-14T00:35:09.618Z,95.98
2017-07-14T00:36:09.931Z,95.22
2017-07-14T00:37:09.591Z,95.41
2017-07-14T00:38:09.579Z,95.03
2017-07-14T00:39:09.891Z,94.93
2017-07-14T00:40:09.550Z,94.93
2017-07-14T00:41:09.540Z,94.89
2017-07-14T00:42:09.527Z,95.41
2017-07-14T00:43:09.512Z,94.55
2017-07-14T00:44:09.821Z,94.74
2017-07-14T00:45:09.811Z,94.93
2017-07-14T00:46:09.469Z,94.46
2017-07-14T00:47:09.780Z,93.98
2017-07-14T00:48:09.444Z,93.6
2017-07-14T00:49:09.431Z,93.55
2017-07-14T00:50:09.740Z,93.55
2017-07-14T00:51:09.724Z,93.17
2017-07-14T00:52:09.391Z,93.31
2017-07-14T00:53:09.376Z,93.7
2017-07-14T00:54:09.688Z,93.31
2017-07-14T00:55:09.672Z,93.5
2017-07-14T00:56:09.338Z,92.69
2017-07-14T00:57:09.324Z,92.74
2017-07-14T00:58:09.662Z,92.55
2017-07-14T00:59:09.298Z,93.36
2017-07-14T01:00:09.603Z,92.88
2017-07-14T01:01:09.273Z,92.55
2017-07-14T01:02:09.581Z,92.31
2017-07-14T01:03:09.571Z,92.5
2017-07-14T01:04:09.553Z,92.5
2017-07-14T01:05:09.542Z,92.31
2017-07-14T01:06:09.526Z,92.5
2017-07-14T01:07:09.515Z,93.46
2017-07-14T01:08:09.500Z,94.22
2017-07-14T01:09:09.213Z,93.74
2017-07-14T01:10:09.477Z,94.51
2017-07-14T01:11:09.136Z,95.08
2017-07-14T01:12:09.446Z,95.41
2017-07-14T01:13:09.111Z,95.56
2017-07-14T01:14:09.422Z,95.84
2017-07-14T01:15:09.082Z,95.84
2017-07-14T01:16:09.069Z,95.75
2017-07-14T01:17:09.376Z,95.36
2017-07-14T01:18:09.042Z,95.46
2017-07-14T01:19:09.360Z,94.98
2017-07-14T01:20:09.018Z,94.89
2017-07-14T01:21:09.012Z,94.98
2017-07-14T01:22:09.307Z,95.17
2017-07-14T01:23:09.295Z,95.08
2017-07-14T01:24:09.282Z,94.89
2017-07-14T01:25:09.275Z,94.7
2017-07-14T01:26:08.934Z,94.03
2017-07-14T01:27:08.920Z,94.03
2017-07-14T01:28:08.909Z,93.84
2017-07-14T01:29:09.266Z,93.74
2017-07-14T01:30:09.199Z,93.55
2017-07-14T01:31:08.866Z,93.55
2017-07-14T01:32:08.854Z,93.65
2017-07-14T01:33:08.839Z,93.26
2017-07-14T01:34:08.826Z,92.88
2017-07-14T01:35:08.813Z,92.5
2017-07-14T01:36:08.803Z,91.83
2017-07-14T01:37:09.108Z,91.83
2017-07-14T01:38:09.092Z,91.74
2017-07-14T01:39:08.759Z,91.55
2017-07-14T01:40:09.070Z,90.5
2017-07-14T01:41:08.731Z,90.11
2017-07-14T01:42:08.718Z,88.49
2017-07-14T01:43:08.706Z,89.16
2017-07-14T01:44:09.008Z,88.97
2017-07-14T01:45:08.998Z,89.64
2017-07-14T01:46:08.984Z,89.35
2017-07-14T01:47:08.649Z,90.11
2017-07-14T01:48:08.959Z,90.11
2017-07-14T01:49:08.629Z,89.25
2017-07-14T01:50:08.611Z,88.59
2017-07-14T01:51:08.594Z,87.92
2017-07-14T01:52:08.583Z,87.54
2017-07-14T01:53:08.895Z,87.35
2017-07-14T01:54:08.877Z,87.15
2017-07-14T01:55:08.542Z,86.53
2017-07-14T01:56:08.528Z,86.82
2017-07-14T01:57:08.837Z,87.29
2017-07-14T01:58:08.851Z,88.15
2017-07-14T01:59:08.810Z,89.25
2017-07-14T02:00:08.472Z,89.06
2017-07-14T02:01:08.784Z,89.3
2017-07-14T02:02:08.448Z,88.78
2017-07-14T02:03:08.434Z,88.11
2017-07-14T02:04:08.421Z,88.06
2017-07-14T02:05:08.730Z,88.11
2017-07-14T02:09:00.459Z,87.82
2017-07-14T02:10:00.436Z,88.11
2017-07-14T02:11:00.426Z,87.92
2017-07-14T02:12:00.090Z,88.11
2017-07-14T02:13:00.399Z,87.82
2017-07-14T02:14:00.383Z,88.01
2017-07-14T02:15:00.099Z,87.54
2017-07-14T02:16:00.035Z,87.15
2017-07-14T02:17:00.349Z,87.06
2017-07-14T02:18:00.006Z,87.06
2017-07-14T02:18:59.995Z,86.87
2017-07-14T02:20:00.304Z,86.68
2017-07-14T02:21:00.292Z,86.49
2017-07-14T02:22:00.313Z,86.87
2017-07-14T02:22:59.944Z,86.68
2017-07-14T02:23:59.926Z,86.01
2017-07-14T02:24:59.914Z,85.44
2017-07-14T02:25:59.900Z,85.72
2017-07-14T02:26:59.885Z,84.86
2017-07-14T02:27:59.872Z,84.77
2017-07-14T02:28:59.859Z,84.29
2017-07-14T02:30:00.167Z,84
2017-07-14T02:31:00.151Z,84.2
2017-07-14T02:32:00.139Z,84.48
2017-07-14T02:32:59.811Z,83.72
2017-07-14T02:34:00.110Z,83.53
2017-07-14T02:35:00.097Z,82.86
2017-07-14T02:36:00.096Z,82.67
2017-07-14T02:36:59.752Z,82.38
2017-07-14T02:38:00.059Z,82.95
2017-07-14T02:39:00.042Z,82.95
2017-07-14T02:40:00.030Z,82.53
2017-07-14T02:40:59.700Z,83.01
2017-07-14T02:42:00.001Z,82.67
2017-07-14T02:42:59.669Z,82.91
2017-07-14T02:43:59.684Z,83.24
2017-07-14T02:44:59.641Z,83.39
2017-07-14T02:45:59.949Z,82.43
2017-07-14T02:46:59.613Z,82.63
2017-07-14T02:47:59.922Z,81.96
2017-07-14T02:48:59.906Z,81.67
2017-07-14T02:49:59.893Z,81.2
2017-07-14T02:50:59.887Z,81.29
2017-07-14T02:51:59.865Z,81.29
2017-07-14T02:52:59.855Z,80.62
2017-07-14T02:53:59.516Z,80.53
2017-07-14T02:54:59.511Z,79.86
2017-07-14T02:55:59.818Z,80.05
2017-07-14T02:56:59.800Z,78.91
2017-07-14T02:57:59.783Z,78.81
2017-07-14T02:58:59.447Z,79
2017-07-14T02:59:59.760Z,78.23
2017-07-14T03:00:59.742Z,78.05
2017-07-14T03:01:59.406Z,77.76
2017-07-14T03:02:59.726Z,77.76
2017-07-14T03:03:59.702Z,78.05
2017-07-14T03:04:59.365Z,77.38
2017-07-14T03:05:59.353Z,76.9
2017-07-14T03:06:59.667Z,76.71
2017-07-14T03:07:59.640Z,76.81
2017-07-14T03:08:59.637Z,76.81
2017-07-14T03:09:59.294Z,76.9
2017-07-14T03:10:59.602Z,76.81
2017-07-14T03:11:59.587Z,77.57
2017-07-14T03:12:59.577Z,77.28
2017-07-14T03:13:59.238Z,77.28
2017-07-14T03:14:59.223Z,77.38
2017-07-14T03:15:59.210Z,77.76
2017-07-14T03:16:59.518Z,77.38
2017-07-14T03:17:59.182Z,77.38
2017-07-14T03:18:59.168Z,77.57
2017-07-14T03:19:59.156Z,77.19
2017-07-14T03:20:59.464Z,76.81
2017-07-14T03:21:59.448Z,77.09
2017-07-14T03:22:59.433Z,77.19
2017-07-14T03:23:59.419Z,77.67
2017-07-14T03:24:59.086Z,77.86
2017-07-14T03:25:59.388Z,78.91
2017-07-14T03:26:59.386Z,79.1
2017-07-14T03:27:59.055Z,79
2017-07-14T03:28:59.027Z,79.1
2017-07-14T03:29:59.385Z,79.48
2017-07-14T03:30:58.999Z,79.28
2017-07-14T03:31:58.987Z,79.19
2017-07-14T03:32:58.971Z,79.67
2017-07-14T03:33:58.957Z,79.48
2017-07-14T03:34:58.945Z,79.57
2017-07-14T03:35:59.253Z,79.15
2017-07-14T03:36:58.915Z,78.86
2017-07-14T03:37:59.223Z,78.96
2017-07-14T03:38:59.210Z,78.58
2017-07-14T03:39:59.197Z,78.2
2017-07-14T03:40:59.178Z,78.2
2017-07-14T03:41:58.843Z,78.1
2017-07-14T03:42:59.156Z,78.2
2017-07-14T03:43:59.137Z,78.2
2017-07-14T03:44:59.125Z,78.2
2017-07-14T03:45:58.819Z,78.49
2017-07-14T03:46:58.776Z,78.49
2017-07-14T03:47:59.083Z,79.15
2017-07-14T03:48:59.066Z,79.15
2017-07-14T03:49:58.730Z,78.77
2017-07-14T03:50:59.039Z,78.3
2017-07-14T03:51:59.023Z,78.1
2017-07-14T03:52:58.689Z,78.01
2017-07-14T03:53:58.994Z,77.91
2017-07-14T03:54:58.659Z,78.1
2017-07-14T03:55:58.969Z,77.62
2017-07-14T03:56:58.631Z,77.34
2017-07-14T03:57:58.619Z,77.34
2017-07-14T03:58:58.600Z,76.57
2017-07-14T03:59:58.587Z,76.77
2017-07-14T04:00:58.571Z,76.67
2017-07-14T04:01:58.561Z,76.86
2017-07-14T04:02:58.544Z,76.29
2017-07-14T04:03:58.852Z,76.54
2017-07-14T04:04:58.840Z,76.48
2017-07-14T04:05:58.829Z,76.25
2017-07-14T04:06:59.026Z,75.2
2017-07-14T04:07:58.802Z,74.86
2017-07-14T04:08:58.798Z,74.57
2017-07-14T04:09:58.445Z,73.62
2017-07-14T04:10:58.761Z,74.01
2017-07-14T04:11:58.754Z,73.52
2017-07-14T04:12:58.729Z,72.96
2017-07-14T04:13:58.384Z,73.14
2017-07-14T04:14:58.370Z,73.43
2017-07-14T04:15:58.690Z,73.05
2017-07-14T04:16:58.339Z,73.43
2017-07-14T04:17:58.683Z,73.43
2017-07-14T04:18:58.311Z,73.24
2017-07-14T04:19:58.622Z,73.24
2017-07-14T04:20:58.603Z,73.33
2017-07-14T04:21:58.268Z,73.14
2017-07-14T04:22:58.574Z,73.33
2017-07-14T04:23:58.242Z,73.72
2017-07-14T04:24:58.547Z,73.72
2017-07-14T04:25:58.213Z,73.24
2017-07-14T04:26:58.545Z,73.62
2017-07-14T04:27:58.186Z,72.67
2017-07-14T04:28:58.173Z,72.86
2017-07-14T04:29:58.478Z,72.48
2017-07-14T04:30:58.462Z,72.57
2017-07-14T04:31:58.128Z,72.86
2017-07-14T04:32:58.112Z,72.09
2017-07-14T04:33:58.419Z,71.72
2017-07-14T04:34:58.403Z,71.43
2017-07-14T04:35:58.388Z,71.81
2017-07-14T04:36:58.378Z,71.52
2017-07-14T04:37:58.363Z,71.62
2017-07-14T04:38:58.345Z,71.62
2017-07-14T04:39:58.010Z,71.52
2017-07-14T04:40:58.332Z,71.43
2017-07-14T04:41:57.984Z,70.67
2017-07-14T04:42:57.965Z,70.57
2017-07-14T04:43:57.957Z,71.04
2017-07-14T04:44:58.261Z,71.52
2017-07-14T04:45:57.924Z,70.86
2017-07-14T04:46:58.234Z,70.86
2017-07-14T04:47:57.896Z,70.86
2017-07-14T04:48:58.224Z,71.04
2017-07-14T04:49:57.867Z,71.23
2017-07-14T04:50:57.854Z,71.04
2017-07-14T04:51:57.839Z,71.04
2017-07-14T04:52:58.147Z,70.67
2017-07-14T04:53:58.136Z,69.81
2017-07-14T04:54:57.798Z,68.88
2017-07-14T04:55:58.108Z,68.98
2017-07-14T04:56:57.769Z,68.7
2017-07-14T04:57:57.755Z,67.83
2017-07-14T04:58:57.741Z,68.03
2017-07-14T04:59:58.049Z,67.83
2017-07-14T05:00:58.035Z,68.41
2017-07-14T05:01:58.022Z,68.51
2017-07-14T05:02:58.006Z,69.08
2017-07-14T05:03:57.993Z,68.7
2017-07-14T05:04:57.657Z,69.17
2017-07-14T05:05:57.645Z,69.08
2017-07-14T05:06:57.956Z,69.08
2017-07-14T05:07:57.617Z,69.65
2017-07-14T05:08:57.601Z,69.74
2017-07-14T05:09:57.590Z,70.13
2017-07-14T05:10:57.571Z,70.42
2017-07-14T05:11:57.559Z,71.18
2017-07-14T05:12:57.869Z,71.41
2017-07-14T05:13:57.531Z,71.69
2017-07-14T05:14:57.839Z,71.78
2017-07-14T05:15:57.506Z,71.66
2017-07-14T05:16:57.820Z,71.88
2017-07-14T05:17:57.801Z,71.59
2017-07-14T05:18:57.784Z,71.5
2017-07-14T05:19:57.776Z,71.88
2017-07-14T05:20:57.762Z,72.26
2017-07-14T05:21:57.744Z,72.64
2017-07-14T05:22:57.728Z,72.74
2017-07-14T05:23:57.395Z,74.46
2017-07-14T05:24:57.706Z,75.6
2017-07-14T05:25:57.368Z,76.6
2017-07-14T05:26:57.672Z,79.33
2017-07-14T05:27:57.344Z,79.94
2017-07-14T05:28:57.333Z,80.22
2017-07-14T05:29:57.315Z,80.9
2017-07-14T05:30:57.301Z,80.51
2017-07-14T05:31:57.289Z,80.13
2017-07-14T05:32:57.599Z,80.04
2017-07-14T05:33:57.262Z,79.75
2017-07-14T05:34:57.568Z,80.51
2017-07-14T05:35:57.561Z,82.61
2017-07-14T05:36:57.542Z,81.47
2017-07-14T05:37:57.206Z,82.32
2017-07-14T05:38:57.515Z,83.09
2017-07-14T05:39:57.503Z,82.61
2017-07-14T05:40:57.168Z,83.23
2017-07-14T05:41:57.160Z,84.38
2017-07-14T05:42:57.144Z,83.51
2017-07-14T05:43:57.452Z,82.94
2017-07-14T05:44:57.443Z,81.51
2017-07-14T05:45:57.106Z,82.37
2017-07-14T05:46:57.414Z,83.33
2017-07-14T05:47:57.118Z,83.51
2017-07-14T05:48:57.067Z,83.61
2017-07-14T05:49:57.054Z,84.19
2017-07-14T05:50:57.042Z,83.8
2017-07-14T05:51:57.351Z,84.32
2017-07-14T05:52:57.337Z,85.66
2017-07-14T05:53:57.323Z,84.89
2017-07-14T05:54:57.313Z,84.89
2017-07-14T05:55:56.982Z,85.47
2017-07-14T05:56:56.967Z,86.33
2017-07-14T05:57:57.273Z,86.61
2017-07-14T05:58:57.265Z,88.24
2017-07-14T05:59:57.250Z,90.06
2017-07-14T06:00:57.236Z,90.92
2017-07-14T06:01:56.904Z,90.63
2017-07-14T06:02:57.210Z,90.92
2017-07-14T06:03:57.201Z,91.97
2017-07-14T06:04:56.867Z,92.07
2017-07-14T06:05:56.852Z,94.41
2017-07-14T06:06:57.372Z,96.7
2017-07-14T06:07:57.148Z,95.07
2017-07-14T06:08:57.147Z,93.84
2017-07-14T06:09:56.803Z,93.16
2017-07-14T06:10:56.793Z,93.93
2017-07-14T06:11:57.105Z,95.36
2017-07-14T06:12:56.767Z,94.6
2017-07-14T06:13:56.763Z,94.98
2017-07-14T06:14:57.065Z,96.32
2017-07-14T06:15:57.056Z,94.12
2017-07-14T06:16:57.045Z,94.6
2017-07-14T06:17:57.037Z,98.09
2017-07-14T06:18:57.021Z,99.99
2017-07-14T06:19:56.684Z,98.43
2017-07-14T06:20:56.993Z,98.52
2017-07-14T06:21:56.661Z,98.91
2017-07-14T06:22:56.648Z,98.91
2017-07-14T06:23:56.959Z,98.91
2017-07-14T06:24:56.953Z,98.81
2017-07-14T06:25:56.937Z,98.14
2017-07-14T06:26:56.924Z,97.66
2017-07-14T06:27:56.918Z,98.24
2017-07-14T06:28:56.584Z,98.43
2017-07-14T06:29:56.895Z,99.99
2017-07-14T06:30:56.567Z,99
2017-07-14T06:31:56.551Z,99.38
2017-07-14T06:32:56.865Z,99.48
2017-07-14T06:33:56.854Z,99.99
2017-07-14T06:34:56.841Z,99.99
2017-07-14T06:35:56.508Z,99.99
2017-07-14T06:36:56.821Z,99.77
2017-07-14T06:37:56.489Z,98.71
2017-07-14T06:38:56.475Z,98.33
2017-07-14T06:39:56.820Z,99.67
2017-07-14T06:40:56.774Z,99.99
2017-07-14T06:41:56.442Z,99.77
2017-07-14T06:42:56.754Z,99.99
2017-07-14T06:43:56.423Z,99.99
2017-07-14T06:44:56.730Z,99.99
2017-07-14T06:45:56.403Z,99.99
2017-07-14T06:46:56.709Z,99.99
2017-07-14T06:47:56.378Z,99.99
2017-07-14T06:48:56.365Z,99.99
2017-07-14T06:49:56.355Z,99.99
2017-07-14T06:50:56.670Z,99.99
2017-07-14T06:51:56.335Z,99.99
2017-07-14T06:52:56.649Z,99.99
2017-07-14T06:53:56.309Z,99.99
2017-07-14T06:54:56.625Z,99.99
2017-07-14T06:55:56.287Z,99.99
2017-07-14T06:56:56.600Z,99.99
2017-07-14T06:57:56.586Z,99.99
2017-07-14T06:58:56.254Z,99.99
2017-07-14T06:59:56.243Z,99.99
2017-07-14T07:00:56.231Z,99.99
2017-07-14T07:01:56.220Z,99.99
2017-07-14T07:02:56.536Z,99.99
2017-07-14T07:03:56.198Z,99.99
2017-07-14T07:04:56.188Z,99.99
2017-07-14T07:05:56.497Z,99.99
2017-07-14T07:06:56.166Z,99.99
2017-07-14T07:07:56.476Z,99.99
2017-07-14T07:08:56.147Z,99.99
2017-07-14T07:09:56.131Z,99.99
2017-07-14T07:10:56.443Z,99.99
2017-07-14T07:11:56.111Z,99.99
2017-07-14T07:12:56.152Z,99.99
2017-07-14T07:13:56.090Z,99.99
2017-07-14T07:14:56.401Z,99.99
2017-07-14T07:15:56.429Z,99.99
2017-07-14T07:16:56.066Z,99.99
2017-07-14T07:17:56.048Z,99.99
2017-07-14T07:18:56.060Z,99.99
2017-07-14T07:19:56.029Z,99.99
2017-07-14T07:20:56.342Z,99.99
2017-07-14T07:21:56.331Z,99.99
2017-07-14T07:22:55.993Z,99.99
2017-07-14T07:23:56.303Z,99.99
2017-07-14T07:24:55.974Z,99.99
2017-07-14T07:25:55.964Z,99.99
2017-07-14T07:26:55.952Z,99.99
2017-07-14T07:27:55.943Z,99.99
2017-07-14T07:28:56.257Z,99.99
2017-07-14T07:29:56.262Z,99.99
2017-07-14T07:30:56.245Z,99.99
2017-07-14T07:31:56.229Z,99.99
2017-07-14T07:32:55.890Z,99.99
2017-07-14T07:33:55.881Z,99.99
2017-07-14T07:34:56.204Z,99.99
2017-07-14T07:35:55.890Z,99.99
2017-07-14T07:36:56.188Z,99.99
2017-07-14T07:37:56.165Z,99.99
2017-07-14T07:38:55.834Z,99.99
2017-07-14T07:39:55.827Z,99.99
2017-07-14T07:40:56.163Z,99.99
2017-07-14T07:41:56.137Z,97.14
2017-07-14T07:42:55.801Z,90.87
2017-07-14T07:43:56.119Z,88.64
2017-07-14T07:44:55.786Z,85.11
2017-07-14T07:45:56.104Z,77.32
2017-07-14T07:46:56.102Z,76.24
2017-07-14T07:47:56.096Z,74.53
2017-07-14T07:48:55.763Z,73.5
2017-07-14T07:49:55.759Z,70.21
2017-07-14T07:50:55.761Z,70.37
2017-07-14T07:51:56.071Z,67.76
2017-07-14T07:52:55.743Z,66.24
2017-07-14T07:53:56.067Z,66.47
2017-07-14T07:54:56.061Z,65.43
2017-07-14T07:55:56.053Z,65.27
2017-07-14T07:56:55.727Z,65.5
2017-07-14T07:57:55.725Z,63
2017-07-14T07:58:55.722Z,63.32
2017-07-14T07:59:56.085Z,60.41
2017-07-14T08:00:55.717Z,59.72
2017-07-14T08:01:56.033Z,59.82
2017-07-14T08:02:56.034Z,60.72
2017-07-14T08:03:56.037Z,59.75
2017-07-14T08:04:55.709Z,57.61
2017-07-14T08:05:55.705Z,59.36
2017-07-14T08:06:56.226Z,59.23
2017-07-14T08:07:56.025Z,59.01
2017-07-14T08:08:56.022Z,58.62
2017-07-14T08:09:56.019Z,59.5
2017-07-14T08:10:56.020Z,57.46
2017-07-14T08:11:56.014Z,58.62
2017-07-14T08:12:55.693Z,56.9
2017-07-14T08:13:56.016Z,58.07
2017-07-14T08:14:56.014Z,57.97
2017-07-14T08:15:56.014Z,57.03
2017-07-14T08:16:55.688Z,54.4
2017-07-14T08:17:55.686Z,55.96
2017-07-14T08:18:55.685Z,57.68
2017-07-14T08:19:56.006Z,57.65
2017-07-14T08:20:55.686Z,56.77
2017-07-14T08:21:56.007Z,58.07
2017-07-14T08:22:55.682Z,56.22
2017-07-14T08:23:56.004Z,57.12
2017-07-14T08:24:56.007Z,57.22
2017-07-14T08:25:55.682Z,54.82
2017-07-14T08:26:56.008Z,53.94
2017-07-14T08:27:55.680Z,52.67
2017-07-14T08:28:55.684Z,54.36
2017-07-14T08:29:55.681Z,51.92
2017-07-14T08:30:56.007Z,52.53
2017-07-14T08:31:55.682Z,51.17
2017-07-14T08:32:56.006Z,53.41
2017-07-14T08:33:55.680Z,52.31
2017-07-14T08:34:55.681Z,51.61
2017-07-14T08:35:55.682Z,51.84
2017-07-14T08:36:56.004Z,55.78
2017-07-14T08:37:56.005Z,55.36
2017-07-14T08:38:56.005Z,53.75
2017-07-14T08:39:56.005Z,53.37
2017-07-14T08:40:56.006Z,54.8
2017-07-14T08:41:56.005Z,55.57
2017-07-14T08:42:56.009Z,52.13
2017-07-14T08:43:55.680Z,53.49
2017-07-14T08:44:56.003Z,53.81
2017-07-14T08:45:55.679Z,49.95
2017-07-14T08:46:55.998Z,49.56
2017-07-14T08:47:55.999Z,49.19
2017-07-14T08:48:56.000Z,49.46
2017-07-14T08:49:55.999Z,50.63
2017-07-14T08:50:55.999Z,51.38
2017-07-14T08:51:56.025Z,52.25
2017-07-14T08:52:55.675Z,51.87
2017-07-14T08:53:55.997Z,53.39
2017-07-14T08:54:55.672Z,53.27
2017-07-14T08:55:55.993Z,53.92
2017-07-14T08:56:55.671Z,53.05
2017-07-14T08:57:55.666Z,53.39
2017-07-14T08:58:55.665Z,55.2
2017-07-14T08:59:55.664Z,57.01
2017-07-14T09:00:55.986Z,57.56
2017-07-14T09:01:55.981Z,57.28
2017-07-14T09:02:55.656Z,55.46
2017-07-14T09:03:55.976Z,56.65
2017-07-14T09:04:55.973Z,56.85
2017-07-14T09:05:55.650Z,57.98
2017-07-14T09:06:55.967Z,57.28
2017-07-14T09:07:55.965Z,58.34
2017-07-14T09:08:55.959Z,60.41
2017-07-14T09:09:55.957Z,60.89
2017-07-14T09:10:55.632Z,61.76
2017-07-14T09:11:55.630Z,60.41
2017-07-14T09:12:55.621Z,59.47
2017-07-14T09:13:55.619Z,59.56
2017-07-14T09:14:55.946Z,60.02
2017-07-14T09:15:55.615Z,59.53
2017-07-14T09:16:55.608Z,59.63
2017-07-14T09:17:55.606Z,60.67
2017-07-14T09:18:55.926Z,61.95
2017-07-14T09:19:55.921Z,62.5
2017-07-14T09:20:55.918Z,60.96
2017-07-14T09:21:55.916Z,59.53
2017-07-14T09:22:55.993Z,60.5
2017-07-14T09:23:55.587Z,60.24
2017-07-14T09:24:55.908Z,58.34
2017-07-14T09:25:55.588Z,57.66
2017-07-14T09:26:55.603Z,59.5
2017-07-14T09:27:55.907Z,59.23
2017-07-14T09:28:55.912Z,57.91
2017-07-14T09:29:55.619Z,56.03
2017-07-14T09:30:55.579Z,55.28
2017-07-14T09:31:55.919Z,53.24
2017-07-14T09:32:55.571Z,53.7
2017-07-14T09:33:55.568Z,53.87
2017-07-14T09:34:55.967Z,55.13
2017-07-14T09:35:55.894Z,55.04
2017-07-14T09:36:55.887Z,54.55
2017-07-14T09:37:55.565Z,54.81
2017-07-14T09:38:55.882Z,54.52
2017-07-14T09:39:55.888Z,55.4
2017-07-14T09:40:55.885Z,55.3
2017-07-14T09:41:55.877Z,56.92
2017-07-14T09:42:55.558Z,55.66
2017-07-14T09:43:55.555Z,55.63
2017-07-14T09:44:55.879Z,56.79
2017-07-14T09:45:55.872Z,56.67
2017-07-14T09:46:55.869Z,58.28
2017-07-14T09:47:55.870Z,56.09
2017-07-14T09:48:55.860Z,58.76
2017-07-14T09:49:55.541Z,58.64
2017-07-14T09:50:55.537Z,59.15
2017-07-14T09:51:55.853Z,59.63
2017-07-14T09:52:55.530Z,59.44
2017-07-14T09:53:55.849Z,60.18
2017-07-14T09:54:55.524Z,60.09
2017-07-14T09:55:55.847Z,60.79
2017-07-14T09:56:55.850Z,60.99
2017-07-14T09:57:55.841Z,60.69
2017-07-14T09:58:55.577Z,61.95
2017-07-14T09:59:55.836Z,61.21
2017-07-14T10:00:55.831Z,60.05
2017-07-14T10:01:55.825Z,58.21
2017-07-14T10:02:55.495Z,59.18
2017-07-14T10:03:55.816Z,59.31
2017-07-14T10:04:55.821Z,58.24
2017-07-14T10:05:55.806Z,59.69
2017-07-14T10:06:56.012Z,59.5
2017-07-14T10:07:55.796Z,57.56
2017-07-14T10:08:55.476Z,58.92
2017-07-14T10:09:55.792Z,58.24
2017-07-14T10:10:55.786Z,60.95
2017-07-14T10:11:55.463Z,58.53
2017-07-14T10:12:55.462Z,59.28
2017-07-14T10:13:55.473Z,60.82
2017-07-14T10:14:55.461Z,60.69
2017-07-14T10:15:55.778Z,61.86
2017-07-14T10:16:55.775Z,62.34
2017-07-14T10:17:55.767Z,60.5
2017-07-14T10:18:55.761Z,61.08
2017-07-14T10:19:55.437Z,62.6
2017-07-14T10:20:55.436Z,61.25
2017-07-14T10:21:55.752Z,61.05
2017-07-14T10:22:55.416Z,61.92
2017-07-14T10:23:55.737Z,63.47
2017-07-14T10:24:55.413Z,64.01
2017-07-14T10:25:55.731Z,62.76
2017-07-14T10:26:55.725Z,62.18
2017-07-14T10:27:55.398Z,64.11
2017-07-14T10:28:55.721Z,63.05
2017-07-14T10:29:55.390Z,63.53
2017-07-14T10:30:55.386Z,62.28
2017-07-14T10:31:55.708Z,62.66
2017-07-14T10:32:55.697Z,61.12
2017-07-14T10:33:55.697Z,62.66
2017-07-14T10:34:55.370Z,62.57
2017-07-14T10:35:55.364Z,63.15
2017-07-14T10:36:55.684Z,62.47
2017-07-14T10:37:55.675Z,61.99
2017-07-14T10:38:55.671Z,63.53
2017-07-14T10:39:55.348Z,62.18
2017-07-14T10:40:55.338Z,61.77
2017-07-14T10:41:55.333Z,62.73
2017-07-14T10:42:55.651Z,62.15
2017-07-14T10:43:55.324Z,62.25
2017-07-14T10:44:55.642Z,62.57
2017-07-14T10:45:55.656Z,61.89
2017-07-14T10:46:55.633Z,61.6
2017-07-14T10:47:55.628Z,61.31
2017-07-14T10:48:55.621Z,63.43
2017-07-14T10:49:55.621Z,65.08
2017-07-14T10:50:55.617Z,65.47
2017-07-14T10:51:55.609Z,64.63
2017-07-14T10:52:55.283Z,64.69
2017-07-14T10:53:55.278Z,64.31
2017-07-14T10:54:55.597Z,65.4
2017-07-14T10:55:55.269Z,64.72
2017-07-14T10:56:55.589Z,66.08
2017-07-14T10:57:55.259Z,65.66
2017-07-14T10:58:55.253Z,65.27
2017-07-14T10:59:55.573Z,65.56
2017-07-14T11:00:55.576Z,66.14
2017-07-14T11:01:55.241Z,66.36
2017-07-14T11:02:55.236Z,66.36
2017-07-14T11:03:55.554Z,65.01
2017-07-14T11:04:55.553Z,63.56
2017-07-14T11:05:55.228Z,63.37
2017-07-14T11:06:55.543Z,62.4
2017-07-14T11:07:55.536Z,63.69
2017-07-14T11:08:55.208Z,62.15
2017-07-14T11:09:55.537Z,62.56
2017-07-14T11:10:55.574Z,62.34
2017-07-14T11:11:55.197Z,62.44
2017-07-14T11:12:55.514Z,60.99
2017-07-14T11:13:55.199Z,59.44
2017-07-14T11:14:55.192Z,60.69
2017-07-14T11:15:55.182Z,60.89
2017-07-14T11:16:55.503Z,60.76
2017-07-14T11:17:55.173Z,58.64
2017-07-14T11:18:55.495Z,59.6
2017-07-14T11:19:55.491Z,59.12
2017-07-14T11:20:55.533Z,60.57
2017-07-14T11:21:55.166Z,61.34
2017-07-14T11:22:55.156Z,63.56
2017-07-14T11:23:55.150Z,61.73
2017-07-14T11:24:55.462Z,63.76
2017-07-14T11:25:55.145Z,63.85
2017-07-14T11:26:55.142Z,64.24
2017-07-14T11:27:55.130Z,65.59
2017-07-14T11:28:55.124Z,64.14
2017-07-14T11:29:55.445Z,61.44
2017-07-14T11:30:55.485Z,61.05
2017-07-14T11:31:55.438Z,61.22
2017-07-14T11:32:55.105Z,61.41
2017-07-14T11:33:55.423Z,63.05
2017-07-14T11:34:55.099Z,65.08
2017-07-14T11:35:55.093Z,63.34
2017-07-14T11:36:55.087Z,63.4
2017-07-14T11:37:55.085Z,62.82
2017-07-14T11:38:55.393Z,65.05
2017-07-14T11:39:55.073Z,64.86
2017-07-14T11:40:55.069Z,63.12
2017-07-14T11:41:55.061Z,63.7
2017-07-14T11:42:55.379Z,63.47
2017-07-14T11:43:55.049Z,63.57
2017-07-14T11:44:55.061Z,64.43
2017-07-14T11:45:55.042Z,66.08
2017-07-14T11:46:55.366Z,63.95
2017-07-14T11:47:55.349Z,64.34
2017-07-14T11:48:55.346Z,64.92
2017-07-14T11:49:55.019Z,63.76
2017-07-14T11:50:55.335Z,63.85
2017-07-14T11:51:55.330Z,64.24
2017-07-14T11:52:55.327Z,64.82
2017-07-14T11:53:55.001Z,64.24
2017-07-14T11:54:55.315Z,64.05
2017-07-14T11:55:54.986Z,63.57
2017-07-14T11:56:55.302Z,63.95
2017-07-14T11:57:55.299Z,64.72
2017-07-14T11:58:55.298Z,63.76
2017-07-14T11:59:54.965Z,64.15
2017-07-14T12:00:55.280Z,64.24
2017-07-14T12:01:55.276Z,65.4
2017-07-14T12:02:54.947Z,65.01
2017-07-14T12:03:54.940Z,64.43
2017-07-14T12:04:55.260Z,63.76
2017-07-14T12:05:54.928Z,62.54
2017-07-14T12:06:55.449Z,61.47
2017-07-14T12:07:54.917Z,61.19
2017-07-14T12:08:55.235Z,63.7
2017-07-14T12:09:54.906Z,63.4
2017-07-14T12:10:54.902Z,61.47
2017-07-14T12:11:55.216Z,62.44
2017-07-14T12:12:54.891Z,63.89
2017-07-14T12:13:54.887Z,63.31
2017-07-14T12:14:54.880Z,62.15
2017-07-14T12:15:54.875Z,61.31
2017-07-14T12:16:54.869Z,63.24
2017-07-14T12:17:54.865Z,63.6
2017-07-14T12:18:54.860Z,64.28
2017-07-14T12:19:55.177Z,63.31
2017-07-14T12:20:55.167Z,63.82
2017-07-14T12:21:55.166Z,63.34
2017-07-14T12:22:54.835Z,62.73
2017-07-14T12:23:54.832Z,63.02
2017-07-14T12:24:55.152Z,63.79
2017-07-14T12:25:54.820Z,63.6
2017-07-14T12:26:54.816Z,65.91
2017-07-14T12:27:54.833Z,65.63
2017-07-14T12:28:54.808Z,66.56
2017-07-14T12:29:55.119Z,66.17
2017-07-14T12:30:54.794Z,66.46
2017-07-14T12:31:54.824Z,66.46
2017-07-14T12:32:55.107Z,65.11
2017-07-14T12:33:54.776Z,66.56
2017-07-14T12:34:55.100Z,65.69
2017-07-14T12:35:54.767Z,66.85
2017-07-14T12:36:54.761Z,66.66
2017-07-14T12:37:55.090Z,67.4
2017-07-14T12:38:54.751Z,67
2017-07-14T12:39:55.069Z,66.66
2017-07-14T12:40:55.061Z,66.82
2017-07-14T12:41:55.104Z,66.91
2017-07-14T12:42:54.729Z,67.2
2017-07-14T12:43:54.720Z,68.35
2017-07-14T12:44:55.034Z,68.42
2017-07-14T12:45:54.707Z,69.61
2017-07-14T12:46:54.701Z,70.35
2017-07-14T12:47:54.694Z,70.64
2017-07-14T12:48:54.687Z,69.87
2017-07-14T12:49:55.013Z,71.7
2017-07-14T12:50:54.995Z,73.18
2017-07-14T12:51:54.991Z,74.82
2017-07-14T12:52:54.665Z,76.93
2017-07-14T12:53:54.656Z,76.93
2017-07-14T12:54:54.650Z,79.83
2017-07-14T12:55:54.645Z,79.64
2017-07-14T12:56:54.965Z,74.33
2017-07-14T12:57:54.631Z,74.91